Fort Davis, TX

9:00 AM CST on February 12, 2016 (GMT -0600)
3 Dog Ranch | | Change Station
CLOSE
Current Station
Personal Weather Station
Location: Fort Davis, TX
Elevation: 5274 ft
Nearby Weather Stations

Elev 5274 ft 30.61 °N, 103.97 °W | Updated 3 seconds ago

Mostly Cloudy
Mostly Cloudy
47.8 °F
Feels Like 48 °F
N
2.7
Wind Variable Wind from NW
Gusts 2.7 mph

Today
High -- | Low -- °F
--% Chance of Precip.
Yesterday
High -- | Low -- °F
Precip. -- in
Pressure 30.33 in
Visibility 10.0 miles
Clouds Clear
Windchill 48 °F
Dew Point 8 °F
Humidity 19%
Rainfall 0.00 in
Snow Depth Not available.
7:39 AM 6:40 PM
Waxing Crescent, 21% visible
METAR KMRF 121456Z AUTO 00000KT 10SM CLR 07/M09 A3036 RMK AO2 SLP270 T00721089 51015
Pressure 30.33 in
Visibility 10.0 miles
Clouds Clear
Windchill 48 °F
Dew Point 8 °F
Humidity 19%
Rainfall 0.00 in
Snow Depth Not available.
7:39 AM 6:40 PM
Waxing Crescent, 21% visible
METAR KMRF 121456Z AUTO 00000KT 10SM CLR 07/M09 A3036 RMK AO2 SLP270 T00721089 51015

10-Day Weather Forecast

Almanac

Astronomy

Feb. 12, 2016 Rise Set
Actual Time
Civil Twilight
Nautical Twilight
Astronomical Twilight
Moon
Length of Visible Light
Length of Day
Tomorrow will be .
, % of the Moon is Illuminated

Today's Extremes

State Highs State Lows

Community

WunderPhotos

Upload Photos

1,892,318 photos uploaded!

WunderBlog® & News

Nearby

Air Quality

  Air Quality AQ Index Pollutant
Not available.

Snow Depth

Station Depth Elevation

Earthquake Activity

City Distance Mag. Time & Date
Minimum magnitude displayed is 2.5.

Coastal Water Temperatures

Place Temperature

Stations

Nearby Weather Stations

Station Location Temp. Windchill Dew Point Humidity Wind Precip. Elev Updated Type
                   

Watches & Warnings

There are currently no watches in effect.